sensor_id;sensor_type;location;lat;lon;timestamp;temperature;humidity
55219;DHT22;41088;44.012;20.902;2022-07-29T01:28:17;564.00;2432.00
55219;DHT22;41088;44.012;20.902;2022-07-29T01:30:55;563.80;2432.00
55219;DHT22;41088;44.012;20.902;2022-07-29T01:33:23;563.90;2432.00
55219;DHT22;41088;44.012;20.902;2022-07-29T01:36:13;563.80;2432.00
55219;DHT22;41088;44.012;20.902;2022-07-29T01:38:42;563.80;2432.00
55219;DHT22;41088;44.012;20.902;2022-07-29T01:41:20;563.80;2432.00
55219;DHT22;41088;44.012;20.902;2022-07-29T01:43:59;563.90;2432.00
55219;DHT22;41088;44.012;20.902;2022-07-29T01:46:38;563.90;2432.00
55219;DHT22;41088;44.012;20.902;2022-07-29T01:49:24;563.80;2432.00
55219;DHT22;41088;44.012;20.902;2022-07-29T01:51:54;563.90;2432.00
55219;DHT22;41088;44.012;20.902;2022-07-29T01:54:37;564.00;2432.00
55219;DHT22;41088;44.012;20.902;2022-07-29T01:57:09;563.90;2432.00
55219;DHT22;41088;44.012;20.902;2022-07-29T01:59:38;563.90;2432.00
55219;DHT22;41088;44.012;20.902;2022-07-29T02:02:08;563.90;2432.00
55219;DHT22;41088;44.012;20.902;2022-07-29T02:04:36;563.80;2432.00
55219;DHT22;41088;44.012;20.902;2022-07-29T04:10:37;589.40;2432.00
55219;DHT22;41088;44.012;20.902;2022-07-29T04:13:09;615.20;2432.00
55219;DHT22;41088;44.012;20.902;2022-07-29T04:15:38;691.40;2432.00
55219;DHT22;41088;44.012;20.902;2022-07-29T04:25:29;768.00;2380.80
55219;DHT22;41088;44.012;20.902;2022-07-29T04:27:55;794.20;2252.80
55219;DHT22;41088;44.012;20.902;2022-07-29T04:32:57;819.50;2176.00
55219;DHT22;41088;44.012;20.902;2022-07-29T04:47:47;922.30;1792.00
55219;DHT22;41088;44.012;20.902;2022-07-29T04:50:13;948.00;1664.00
55219;DHT22;41088;44.012;20.902;2022-07-29T04:52:42;948.00;1689.60
55219;DHT22;41088;44.012;20.902;2022-07-29T05:14:39;1050.10;1408.00
55219;DHT22;41088;44.012;20.902;2022-07-29T05:17:05;1050.00;1408.00
55219;DHT22;41088;44.012;20.902;2022-07-29T05:19:31;1050.30;1382.40
55219;DHT22;41088;44.012;20.902;2022-07-29T05:21:57;1050.50;1356.80
55219;DHT22;41088;44.012;20.902;2022-07-29T05:24:23;1075.30;1331.20
55219;DHT22;41088;44.012;20.902;2022-07-29T05:26:49;1100.80;1305.60
55219;DHT22;41088;44.012;20.902;2022-07-29T05:29:15;1101.00;1305.60
55219;DHT22;41088;44.012;20.902;2022-07-29T05:31:41;1100.80;1280.00
55219;DHT22;41088;44.012;20.902;2022-07-29T05:34:07;1101.20;1228.80
55219;DHT22;41088;44.012;20.902;2022-07-29T05:36:33;1101.50;1228.80
55219;DHT22;41088;44.012;20.902;2022-07-29T05:38:59;1126.70;1228.80
55219;DHT22;41088;44.012;20.902;2022-07-29T05:43:51;1127.20;1177.60
55219;DHT22;41088;44.012;20.902;2022-07-29T05:46:18;1126.70;1177.60
55219;DHT22;41088;44.012;20.902;2022-07-29T05:48:45;1127.00;1177.60
55219;DHT22;41088;44.012;20.902;2022-07-29T05:51:11;1075.70;1203.20
55219;DHT22;41088;44.012;20.902;2022-07-29T05:53:37;1049.70;1254.40
55219;DHT22;41088;44.012;20.902;2022-07-29T05:56:04;998.90;1305.60
55219;DHT22;41088;44.012;20.902;2022-07-29T05:58:31;998.80;1305.60
55219;DHT22;41088;44.012;20.902;2022-07-29T06:00:57;1024.00;1280.00
55219;DHT22;41088;44.012;20.902;2022-07-29T06:03:26;1024.90;1254.40
55219;DHT22;41088;44.012;20.902;2022-07-29T06:05:54;1050.50;1228.80
55219;DHT22;41088;44.012;20.902;2022-07-29T06:08:20;1075.30;1228.80
55219;DHT22;41088;44.012;20.902;2022-07-29T06:10:46;1075.70;1203.20
55219;DHT22;41088;44.012;20.902;2022-07-29T06:13:13;1075.40;1203.20
55219;DHT22;41088;44.012;20.902;2022-07-29T06:15:42;1024.30;1280.00
55219;DHT22;41088;44.012;20.902;2022-07-29T06:18:08;973.10;1331.20
55219;DHT22;41088;44.012;20.902;2022-07-29T06:20:35;922.50;1408.00
55219;DHT22;41088;44.012;20.902;2022-07-29T06:25:30;896.20;1484.80
55219;DHT22;41088;44.012;20.902;2022-07-29T07:04:57;845.00;1715.20
55219;DHT22;41088;44.012;20.902;2022-07-29T07:12:19;819.60;1740.80
55219;DHT22;41088;44.012;20.902;2022-07-29T07:14:45;819.50;1740.80
55219;DHT22;41088;44.012;20.902;2022-07-29T07:17:11;819.30;1766.40
55219;DHT22;41088;44.012;20.902;2022-07-29T10:20:21;870.40;1792.00
55219;DHT22;41088;44.012;20.902;2022-07-29T10:22:48;845.70;1766.40
55219;DHT22;41088;44.012;20.902;2022-07-29T10:25:15;845.60;1766.40
55219;DHT22;41088;44.012;20.902;2022-07-29T10:27:43;845.70;1766.40
55219;DHT22;41088;44.012;20.902;2022-07-29T10:30:10;870.40;1766.40
55219;DHT22;41088;44.012;20.902;2022-07-29T10:36:35;870.80;1766.40
55219;DHT22;41088;44.012;20.902;2022-07-29T10:41:33;870.90;1740.80
55219;DHT22;41088;44.012;20.902;2022-07-29T10:44:17;870.50;1740.80
55219;DHT22;41088;44.012;20.902;2022-07-29T10:46:44;870.40;1740.80
55219;DHT22;41088;44.012;20.902;2022-07-29T10:57:26;870.40;1740.80
55219;DHT22;41088;44.012;20.902;2022-07-29T11:07:23;845.70;1715.20
55219;DHT22;41088;44.012;20.902;2022-07-29T11:15:10;845.60;1715.20
55219;DHT22;41088;44.012;20.902;2022-07-29T11:20:40;845.30;1740.80
55219;DHT22;41088;44.012;20.902;2022-07-29T11:31:38;845.60;1715.20
55219;DHT22;41088;44.012;20.902;2022-07-29T11:45:01;870.40;1689.60
55219;DHT22;41088;44.012;20.902;2022-07-29T11:47:30;845.70;1689.60
55219;DHT22;41088;44.012;20.902;2022-07-29T11:49:57;845.60;1689.60
55219;DHT22;41088;44.012;20.902;2022-07-29T11:52:23;845.60;1689.60
55219;DHT22;41088;44.012;20.902;2022-07-29T11:54:59;845.60;1689.60
55219;DHT22;41088;44.012;20.902;2022-07-29T11:57:28;870.40;1689.60
55219;DHT22;41088;44.012;20.902;2022-07-29T11:59:55;870.50;1664.00
55219;DHT22;41088;44.012;20.902;2022-07-29T12:02:23;870.60;1664.00
55219;DHT22;41088;44.012;20.902;2022-07-29T12:04:50;870.70;1664.00
55219;DHT22;41088;44.012;20.902;2022-07-29T12:07:16;870.80;1638.40
55219;DHT22;41088;44.012;20.902;2022-07-29T12:09:52;870.90;1664.00
55219;DHT22;41088;44.012;20.902;2022-07-29T12:12:20;870.80;1638.40
55219;DHT22;41088;44.012;20.902;2022-07-29T12:14:46;870.80;1638.40
55219;DHT22;41088;44.012;20.902;2022-07-29T12:17:27;870.90;1638.40
55219;DHT22;41088;44.012;20.902;2022-07-29T12:19:54;870.90;1638.40
55219;DHT22;41088;44.012;20.902;2022-07-29T12:22:32;871.00;1638.40
55219;DHT22;41088;44.012;20.902;2022-07-29T12:25:04;871.10;1612.80
55219;DHT22;41088;44.012;20.902;2022-07-29T12:27:31;871.20;1612.80
55219;DHT22;41088;44.012;20.902;2022-07-29T12:30:00;871.30;1587.20
55219;DHT22;41088;44.012;20.902;2022-07-29T12:32:40;871.20;1587.20
55219;DHT22;41088;44.012;20.902;2022-07-29T12:35:18;871.20;1587.20
55219;DHT22;41088;44.012;20.902;2022-07-29T12:37:46;871.10;1587.20
55219;DHT22;41088;44.012;20.902;2022-07-29T12:40:18;871.20;1587.20
55219;DHT22;41088;44.012;20.902;2022-07-29T12:43:06;871.20;1587.20
55219;DHT22;41088;44.012;20.902;2022-07-29T12:45:36;871.20;1587.20
55219;DHT22;41088;44.012;20.902;2022-07-29T12:48:03;871.20;1587.20
55219;DHT22;41088;44.012;20.902;2022-07-29T12:50:29;871.20;1587.20
55219;DHT22;41088;44.012;20.902;2022-07-29T12:53:11;871.20;1587.20
55219;DHT22;41088;44.012;20.902;2022-07-29T12:55:44;871.20;1561.60
55219;DHT22;41088;44.012;20.902;2022-07-29T12:58:36;871.20;1561.60
55219;DHT22;41088;44.012;20.902;2022-07-29T13:03:44;871.20;1561.60
55219;DHT22;41088;44.012;20.902;2022-07-29T13:06:39;871.20;1561.60
55219;DHT22;41088;44.012;20.902;2022-07-29T13:09:08;871.20;1561.60
55219;DHT22;41088;44.012;20.902;2022-07-29T13:11:41;871.10;1561.60
55219;DHT22;41088;44.012;20.902;2022-07-29T13:14:08;871.00;1561.60
55219;DHT22;41088;44.012;20.902;2022-07-29T13:16:36;871.00;1561.60
55219;DHT22;41088;44.012;20.902;2022-07-29T13:19:07;871.10;1536.00
55219;DHT22;41088;44.012;20.902;2022-07-29T13:21:34;871.20;1536.00
55219;DHT22;41088;44.012;20.902;2022-07-29T13:24:01;896.00;1536.00
55219;DHT22;41088;44.012;20.902;2022-07-29T13:26:27;896.00;1536.00
55219;DHT22;41088;44.012;20.902;2022-07-29T13:28:54;896.00;1510.40
55219;DHT22;41088;44.012;20.902;2022-07-29T13:31:20;896.20;1510.40
55219;DHT22;41088;44.012;20.902;2022-07-29T13:33:46;896.20;1510.40
55219;DHT22;41088;44.012;20.902;2022-07-29T13:36:13;896.40;1510.40
55219;DHT22;41088;44.012;20.902;2022-07-29T13:38:39;896.50;1510.40
55219;DHT22;41088;44.012;20.902;2022-07-29T13:41:05;896.80;1484.80
55219;DHT22;41088;44.012;20.902;2022-07-29T13:43:31;921.60;1484.80
55219;DHT22;41088;44.012;20.902;2022-07-29T13:45:57;896.80;1484.80
55219;DHT22;41088;44.012;20.902;2022-07-29T13:48:23;896.80;1459.20
55219;DHT22;41088;44.012;20.902;2022-07-29T13:50:49;896.80;1484.80
55219;DHT22;41088;44.012;20.902;2022-07-29T13:53:15;896.90;1459.20
55219;DHT22;41088;44.012;20.902;2022-07-29T13:55:41;896.70;1484.80
55219;DHT22;41088;44.012;20.902;2022-07-29T13:58:07;896.70;1484.80
55219;DHT22;41088;44.012;20.902;2022-07-29T14:00:33;896.60;1484.80
55219;DHT22;41088;44.012;20.902;2022-07-29T14:02:59;896.60;1484.80
55219;DHT22;41088;44.012;20.902;2022-07-29T14:05:24;896.70;1484.80
55219;DHT22;41088;44.012;20.902;2022-07-29T14:07:50;896.70;1484.80
55219;DHT22;41088;44.012;20.902;2022-07-29T14:10:17;921.80;1484.80
55219;DHT22;41088;44.012;20.902;2022-07-29T14:12:43;921.60;1484.80
55219;DHT22;41088;44.012;20.902;2022-07-29T14:15:09;896.80;1433.60
55219;DHT22;41088;44.012;20.902;2022-07-29T14:17:35;896.90;1433.60
55219;DHT22;41088;44.012;20.902;2022-07-29T14:20:01;896.90;1433.60
55219;DHT22;41088;44.012;20.902;2022-07-29T14:22:26;896.80;1459.20
55219;DHT22;41088;44.012;20.902;2022-07-29T14:24:52;896.80;1433.60
55219;DHT22;41088;44.012;20.902;2022-07-29T14:27:18;896.70;1459.20
55219;DHT22;41088;44.012;20.902;2022-07-29T14:29:44;896.80;1459.20
55219;DHT22;41088;44.012;20.902;2022-07-29T14:32:10;896.90;1433.60
55219;DHT22;41088;44.012;20.902;2022-07-29T14:34:37;921.60;1459.20
55219;DHT22;41088;44.012;20.902;2022-07-29T14:37:03;921.90;1433.60
55219;DHT22;41088;44.012;20.902;2022-07-29T14:39:31;921.90;1459.20
55219;DHT22;41088;44.012;20.902;2022-07-29T14:41:57;922.00;1433.60
55219;DHT22;41088;44.012;20.902;2022-07-29T14:44:23;921.90;1433.60
55219;DHT22;41088;44.012;20.902;2022-07-29T14:46:49;896.70;1408.00
55219;DHT22;41088;44.012;20.902;2022-07-29T15:03:53;921.60;1459.20
55219;DHT22;41088;44.012;20.902;2022-07-29T15:25:53;896.50;1433.60
55219;DHT22;41088;44.012;20.902;2022-07-29T15:28:19;896.50;1408.00
55219;DHT22;41088;44.012;20.902;2022-07-29T15:30:45;896.10;1433.60
55219;DHT22;41088;44.012;20.902;2022-07-29T15:33:11;896.10;1459.20
55219;DHT22;41088;44.012;20.902;2022-07-29T15:35:37;871.20;1459.20
55219;DHT22;41088;44.012;20.902;2022-07-29T15:38:04;871.20;1484.80
55219;DHT22;41088;44.012;20.902;2022-07-29T15:40:30;871.10;1484.80
55219;DHT22;41088;44.012;20.902;2022-07-29T15:42:56;870.90;1561.60
55219;DHT22;41088;44.012;20.902;2022-07-29T15:45:23;871.00;1561.60
55219;DHT22;41088;44.012;20.902;2022-07-29T15:47:50;871.00;1561.60
55219;DHT22;41088;44.012;20.902;2022-07-29T15:50:16;870.80;1561.60
55219;DHT22;41088;44.012;20.902;2022-07-29T15:57:36;870.70;1612.80
55219;DHT22;41088;44.012;20.902;2022-07-29T16:00:04;870.60;1612.80
55219;DHT22;41088;44.012;20.902;2022-07-29T16:02:31;870.40;1612.80
55219;DHT22;41088;44.012;20.902;2022-07-29T16:04:57;870.40;1612.80
55219;DHT22;41088;44.012;20.902;2022-07-29T16:07:23;845.70;1612.80
55219;DHT22;41088;44.012;20.902;2022-07-29T16:09:52;845.60;1638.40
55219;DHT22;41088;44.012;20.902;2022-07-29T16:12:21;845.50;1638.40
55219;DHT22;41088;44.012;20.902;2022-07-29T16:14:47;845.40;1664.00
55219;DHT22;41088;44.012;20.902;2022-07-29T16:17:13;845.30;1664.00
55219;DHT22;41088;44.012;20.902;2022-07-29T16:19:39;845.30;1664.00
55219;DHT22;41088;44.012;20.902;2022-07-29T16:22:05;845.30;1664.00
55219;DHT22;41088;44.012;20.902;2022-07-29T16:24:36;845.30;1664.00
55219;DHT22;41088;44.012;20.902;2022-07-29T16:27:03;845.10;1664.00
55219;DHT22;41088;44.012;20.902;2022-07-29T16:29:29;845.10;1664.00
55219;DHT22;41088;44.012;20.902;2022-07-29T16:31:55;845.10;1689.60
55219;DHT22;41088;44.012;20.902;2022-07-29T16:34:21;845.00;1689.60
55219;DHT22;41088;44.012;20.902;2022-07-29T16:36:47;845.00;1689.60
55219;DHT22;41088;44.012;20.902;2022-07-29T16:39:16;845.00;1689.60
55219;DHT22;41088;44.012;20.902;2022-07-29T16:41:42;845.10;1689.60
55219;DHT22;41088;44.012;20.902;2022-07-29T16:44:08;845.00;1715.20
55219;DHT22;41088;44.012;20.902;2022-07-29T16:46:34;844.90;1715.20
55219;DHT22;41088;44.012;20.902;2022-07-29T16:49:03;845.10;1715.20
55219;DHT22;41088;44.012;20.902;2022-07-29T16:51:29;845.00;1715.20
55219;DHT22;41088;44.012;20.902;2022-07-29T16:53:55;844.90;1715.20
55219;DHT22;41088;44.012;20.902;2022-07-29T16:56:21;844.90;1715.20
55219;DHT22;41088;44.012;20.902;2022-07-29T16:58:47;844.90;1715.20
55219;DHT22;41088;44.012;20.902;2022-07-29T17:01:13;844.90;1715.20
55219;DHT22;41088;44.012;20.902;2022-07-29T17:03:38;844.80;1715.20
55219;DHT22;41088;44.012;20.902;2022-07-29T17:06:24;844.80;1715.20
55219;DHT22;41088;44.012;20.902;2022-07-29T17:08:50;820.10;1715.20
55219;DHT22;41088;44.012;20.902;2022-07-29T17:11:16;820.00;1715.20
55219;DHT22;41088;44.012;20.902;2022-07-29T17:23:27;820.10;1715.20
55219;DHT22;41088;44.012;20.902;2022-07-29T17:25:54;819.80;1740.80
55219;DHT22;41088;44.012;20.902;2022-07-29T17:28:20;819.70;1740.80
55219;DHT22;41088;44.012;20.902;2022-07-29T17:30:46;819.60;1766.40
55219;DHT22;41088;44.012;20.902;2022-07-29T17:33:13;819.60;1766.40
55219;DHT22;41088;44.012;20.902;2022-07-29T17:35:39;819.80;1766.40
55219;DHT22;41088;44.012;20.902;2022-07-29T17:38:23;819.70;1766.40
55219;DHT22;41088;44.012;20.902;2022-07-29T17:53:02;819.40;1817.60
55219;DHT22;41088;44.012;20.902;2022-07-29T17:55:28;819.40;1817.60
55219;DHT22;41088;44.012;20.902;2022-07-29T17:57:54;819.20;1792.00
55219;DHT22;41088;44.012;20.902;2022-07-29T18:00:20;794.40;1817.60
55219;DHT22;41088;44.012;20.902;2022-07-29T18:32:04;793.90;1868.80
55219;DHT22;41088;44.012;20.902;2022-07-29T18:44:16;793.90;1894.40
55219;DHT22;41088;44.012;20.902;2022-07-29T18:46:42;793.60;1920.00
55219;DHT22;41088;44.012;20.902;2022-07-29T18:49:08;768.80;1894.40
55219;DHT22;41088;44.012;20.902;2022-07-29T18:51:34;768.80;1920.00
55219;DHT22;41088;44.012;20.902;2022-07-29T18:54:04;768.80;1920.00
55219;DHT22;41088;44.012;20.902;2022-07-29T18:56:31;793.60;1945.60
55219;DHT22;41088;44.012;20.902;2022-07-29T18:58:57;768.80;1945.60
55219;DHT22;41088;44.012;20.902;2022-07-29T19:01:24;768.80;1868.80
55219;DHT22;41088;44.012;20.902;2022-07-29T19:03:51;768.60;1894.40
55219;DHT22;41088;44.012;20.902;2022-07-29T19:13:37;768.50;1894.40
55219;DHT22;41088;44.012;20.902;2022-07-29T19:28:18;768.30;1996.80
55219;DHT22;41088;44.012;20.902;2022-07-29T19:30:47;768.10;1996.80
55219;DHT22;41088;44.012;20.902;2022-07-29T21:01:58;717.60;2176.00
55219;DHT22;41088;44.012;20.902;2022-07-29T21:04:24;717.50;2176.00
55219;DHT22;41088;44.012;20.902;2022-07-29T21:06:51;717.40;2176.00
55219;DHT22;41088;44.012;20.902;2022-07-29T21:09:18;717.30;2201.60
55219;DHT22;41088;44.012;20.902;2022-07-29T21:11:45;717.30;2201.60
55219;DHT22;41088;44.012;20.902;2022-07-29T21:14:12;717.10;2227.20
55219;DHT22;41088;44.012;20.902;2022-07-29T21:16:57;717.00;2227.20
55219;DHT22;41088;44.012;20.902;2022-07-29T21:19:23;717.00;2252.80
55219;DHT22;41088;44.012;20.902;2022-07-29T21:21:48;716.80;2252.80
55219;DHT22;41088;44.012;20.902;2022-07-29T21:24:14;716.80;2252.80
55219;DHT22;41088;44.012;20.902;2022-07-29T21:26:43;716.80;2278.40
55219;DHT22;41088;44.012;20.902;2022-07-29T21:29:10;692.10;2252.80
55219;DHT22;41088;44.012;20.902;2022-07-29T21:31:35;692.10;2278.40
55219;DHT22;41088;44.012;20.902;2022-07-29T21:34:01;692.10;2278.40
55219;DHT22;41088;44.012;20.902;2022-07-29T21:36:30;692.00;2278.40
55219;DHT22;41088;44.012;20.902;2022-07-29T21:38:56;692.00;2304.00
55219;DHT22;41088;44.012;20.902;2022-07-29T21:43:53;691.90;2329.60
55219;DHT22;41088;44.012;20.902;2022-07-29T21:46:19;691.70;2329.60
55219;DHT22;41088;44.012;20.902;2022-07-29T21:48:49;691.70;2355.20
55219;DHT22;41088;44.012;20.902;2022-07-29T21:55:02;691.70;2380.80
55219;DHT22;41088;44.012;20.902;2022-07-29T21:57:32;691.70;2380.80
55219;DHT22;41088;44.012;20.902;2022-07-29T22:07:26;691.60;2432.00
55219;DHT22;41088;44.012;20.902;2022-07-29T22:09:51;691.40;2432.00
55219;DHT22;41088;44.012;20.902;2022-07-29T22:29:27;691.60;2432.00
55219;DHT22;41088;44.012;20.902;2022-07-29T22:31:53;691.40;2432.00
55219;DHT22;41088;44.012;20.902;2022-07-29T22:34:19;691.20;2432.00
55219;DHT22;41088;44.012;20.902;2022-07-29T22:36:46;691.30;2432.00
55219;DHT22;41088;44.012;20.902;2022-07-29T22:39:12;666.40;2432.00
55219;DHT22;41088;44.012;20.902;2022-07-29T22:41:39;666.40;2432.00
55219;DHT22;41088;44.012;20.902;2022-07-29T22:44:07;666.30;2432.00
55219;DHT22;41088;44.012;20.902;2022-07-29T22:47:07;666.20;2432.00
55219;DHT22;41088;44.012;20.902;2022-07-29T22:50:10;666.20;2432.00
55219;DHT22;41088;44.012;20.902;2022-07-29T22:52:51;666.20;2432.00
55219;DHT22;41088;44.012;20.902;2022-07-29T23:57:35;640.90;2432.00
